Time;durP1;ratioP1;P1;durP2;ratioP2;P2;SDS_P1;SDS_P2;PMS_P1;PMS_P2;Temp;Humidity;BMP_temperature;BMP_pressure;BME280_temperature;BME280_humidity;BME280_pressure;Samples;Min_cycle;Max_cycle;Signal;HPM_P1;HPM_P2
2022/12/30 00:00:53;;;;;;;1.48;1.38;;;17.80;50.50;;;;;;5036409;28;20195;-79
2022/12/30 00:03:20;;;;;;;1.30;1.20;;;17.80;50.40;;;;;;5036345;28;20595;-78
2022/12/30 00:05:48;;;;;;;1.20;1.10;;;17.70;50.40;;;;;;5036512;28;20294;-78
2022/12/30 00:10:59;;;;;;;1.40;1.30;;;17.70;50.50;;;;;;5022755;28;20259;-78
2022/12/30 00:35:26;;;;;;;1.08;1.08;;;17.50;50.70;;;;;;5033223;28;20195;-79
2022/12/30 00:37:53;;;;;;;1.13;1.02;;;17.50;50.60;;;;;;5061533;28;20648;-79
2022/12/30 00:40:20;;;;;;;1.30;0.90;;;17.50;50.70;;;;;;5044368;28;20204;-79
2022/12/30 00:45:33;;;;;;;1.17;1.08;;;17.50;50.80;;;;;;5024350;28;20261;-79
2022/12/30 00:48:00;;;;;;;1.00;1.00;;;17.50;50.80;;;;;;5037156;28;20223;-79
2022/12/30 00:56:11;;;;;;;0.85;0.85;;;17.40;50.80;;;;;;5035626;28;20192;-79
2022/12/30 00:58:38;;;;;;;0.80;0.80;;;17.40;50.90;;;;;;5035829;28;20219;-79
2022/12/30 01:01:07;;;;;;;0.98;0.98;;;17.40;51.00;;;;;;5035753;28;20195;-78
2022/12/30 01:03:34;;;;;;;0.80;0.80;;;17.40;50.90;;;;;;5036025;28;20637;-78
2022/12/30 01:06:06;;;;;;;1.15;1.10;;;17.40;51.00;;;;;;5037388;28;20207;-78
2022/12/30 01:08:34;;;;;;;0.98;0.98;;;17.40;51.00;;;;;;5039007;28;20231;-78
2022/12/30 01:11:06;;;;;;;1.00;1.00;;;17.30;50.90;;;;;;5038838;28;20199;-78
2022/12/30 01:13:33;;;;;;;1.00;0.90;;;17.30;50.90;;;;;;5039112;28;20188;-78
2022/12/30 01:16:08;;;;;;;1.35;0.95;;;17.30;50.90;;;;;;5038940;28;20218;-78
2022/12/30 01:18:35;;;;;;;1.10;1.00;;;17.30;51.00;;;;;;5038866;28;20630;-78
2022/12/30 01:21:02;;;;;;;0.80;0.80;;;17.30;51.00;;;;;;5022293;28;20218;-78
2022/12/30 01:23:29;;;;;;;1.17;0.95;;;17.30;51.00;;;;;;5038663;28;20242;-78
2022/12/30 01:25:56;;;;;;;1.05;1.00;;;17.30;51.00;;;;;;5038819;28;20206;-78
2022/12/30 01:28:24;;;;;;;1.15;0.85;;;17.30;51.00;;;;;;5038160;28;20239;-78
2022/12/30 01:30:52;;;;;;;0.80;0.80;;;17.30;51.00;;;;;;5038675;28;20550;-78
2022/12/30 01:33:20;;;;;;;1.00;1.00;;;17.30;51.00;;;;;;5038212;28;20675;-78
2022/12/30 01:35:47;;;;;;;0.90;0.90;;;17.20;50.90;;;;;;5038311;28;20570;-78
2022/12/30 01:38:15;;;;;;;1.02;0.93;;;17.20;51.00;;;;;;5038635;28;20278;-78
2022/12/30 01:40:43;;;;;;;1.27;1.02;;;17.20;51.10;;;;;;5038412;28;20250;-78
2022/12/30 01:43:11;;;;;;;1.08;0.98;;;17.20;51.00;;;;;;5038544;28;20564;-78
2022/12/30 01:45:38;;;;;;;0.90;0.90;;;17.10;51.00;;;;;;5055774;28;20253;-78
2022/12/30 01:48:07;;;;;;;0.98;0.98;;;17.20;51.10;;;;;;5045755;28;20595;-79
2022/12/30 01:50:39;;;;;;;1.00;0.95;;;17.20;51.10;;;;;;5063920;28;20195;-79
2022/12/30 01:53:07;;;;;;;0.90;0.90;;;17.20;51.20;;;;;;5045530;28;20195;-79
2022/12/30 01:55:40;;;;;;;1.00;0.90;;;17.10;51.10;;;;;;5045578;28;20202;-79
2022/12/30 01:58:10;;;;;;;1.15;0.98;;;17.10;51.00;;;;;;5064729;28;20207;-79
2022/12/30 02:00:37;;;;;;;0.82;0.82;;;17.20;51.20;;;;;;5063850;28;20200;-79
2022/12/30 02:03:04;;;;;;;1.02;0.93;;;17.10;51.00;;;;;;5046010;28;20200;-79
2022/12/30 02:05:32;;;;;;;0.80;0.80;;;17.10;51.00;;;;;;5028661;28;20585;-79
2022/12/30 02:08:05;;;;;;;1.00;1.00;;;17.10;51.10;;;;;;5061500;28;20253;-79
2022/12/30 02:10:33;;;;;;;0.90;0.90;;;17.10;51.00;;;;;;5045958;28;20214;-79
2022/12/30 02:13:00;;;;;;;1.35;1.17;;;17.10;51.10;;;;;;5044639;28;20195;-79
2022/12/30 02:15:27;;;;;;;1.10;1.00;;;17.10;51.20;;;;;;5044429;28;20195;-79
2022/12/30 02:17:59;;;;;;;1.25;1.00;;;17.00;51.00;;;;;;5044381;28;20759;-79
2022/12/30 02:20:46;;;;;;;1.15;1.05;;;17.10;51.10;;;;;;5059786;28;20198;-79
2022/12/30 02:23:30;;;;;;;0.90;0.90;;;17.00;51.10;;;;;;5037872;28;20223;-79
2022/12/30 02:26:19;;;;;;;0.98;0.98;;;17.00;51.00;;;;;;5054228;28;20195;-79
2022/12/30 02:29:08;;;;;;;1.00;0.90;;;17.00;51.10;;;;;;5037625;28;20285;-79
2022/12/30 02:31:41;;;;;;;0.90;0.90;;;17.00;51.10;;;;;;5054249;28;20653;-78
2022/12/30 02:34:11;;;;;;;0.90;0.90;;;17.00;51.10;;;;;;5054057;28;20262;-79
2022/12/30 02:36:43;;;;;;;0.80;0.80;;;17.00;51.00;;;;;;5037413;28;20231;-79
2022/12/30 02:39:14;;;;;;;1.42;1.00;;;16.90;51.00;;;;;;5037355;28;20257;-79
2022/12/30 02:44:38;;;;;;;0.73;0.73;;;16.90;50.90;;;;;;5037052;28;20226;-79
2022/12/30 02:47:09;;;;;;;1.08;1.00;;;16.90;50.90;;;;;;5054148;28;20195;-79
2022/12/30 02:49:37;;;;;;;0.80;0.80;;;16.90;50.90;;;;;;5054072;28;20231;-79
2022/12/30 02:52:15;;;;;;;1.02;0.93;;;16.90;50.90;;;;;;5055168;28;20179;-79
2022/12/30 02:54:43;;;;;;;1.10;1.00;;;16.80;50.80;;;;;;5037803;28;20194;-78
2022/12/30 02:57:24;;;;;;;0.73;0.73;;;16.80;50.80;;;;;;5037583;28;20226;-78
2022/12/30 03:05:35;;;;;;;0.90;0.90;;;16.80;50.80;;;;;;5037771;28;20202;-78
2022/12/30 03:08:05;;;;;;;1.02;0.77;;;16.80;50.80;;;;;;5036979;28;20241;-78
2022/12/30 03:13:22;;;;;;;0.80;0.80;;;16.70;50.70;;;;;;5037742;28;20188;-78
2022/12/30 03:15:55;;;;;;;0.70;0.70;;;16.70;50.80;;;;;;5037717;28;20246;-78
2022/12/30 03:18:24;;;;;;;1.02;0.93;;;16.70;50.80;;;;;;5054132;28;20688;-78
2022/12/30 03:20:51;;;;;;;0.93;0.93;;;16.70;50.70;;;;;;5037949;28;20205;-78
2022/12/30 03:28:48;;;;;;;1.23;1.00;;;16.60;50.70;;;;;;5022506;28;20226;-78
2022/12/30 03:31:15;;;;;;;1.38;0.80;;;16.60;50.80;;;;;;5036775;28;20206;-78
2022/12/30 03:33:44;;;;;;;1.10;0.90;;;16.60;50.80;;;;;;5036978;28;20205;-78
2022/12/30 03:36:13;;;;;;;0.88;0.88;;;16.60;50.80;;;;;;5037089;28;20568;-78
2022/12/30 03:38:43;;;;;;;1.30;0.93;;;16.50;50.90;;;;;;5036477;28;20211;-78
2022/12/30 03:41:10;;;;;;;0.82;0.82;;;16.50;50.90;;;;;;5053418;28;20199;-78
2022/12/30 03:43:38;;;;;;;0.85;0.85;;;16.50;51.00;;;;;;5036369;28;20213;-78
2022/12/30 03:46:05;;;;;;;1.52;1.10;;;16.50;50.80;;;;;;5053280;28;20199;-78
2022/12/30 03:48:32;;;;;;;0.95;0.95;;;16.40;50.70;;;;;;5036587;28;20219;-78
2022/12/30 03:51:01;;;;;;;1.10;0.90;;;16.60;50.90;;;;;;5036538;28;20195;-78
2022/12/30 03:53:28;;;;;;;0.90;0.90;;;16.40;50.80;;;;;;5037024;28;20207;-78
2022/12/30 03:55:55;;;;;;;0.70;0.70;;;16.40;50.90;;;;;;5020450;28;20195;-78
2022/12/30 03:58:22;;;;;;;1.13;1.00;;;16.40;50.90;;;;;;5036867;28;20567;-78
2022/12/30 04:00:50;;;;;;;1.08;0.98;;;16.40;50.90;;;;;;5036387;28;20269;-78
2022/12/30 04:03:17;;;;;;;0.93;0.93;;;16.40;50.90;;;;;;5036066;28;20264;-78
2022/12/30 04:05:45;;;;;;;1.00;1.00;;;16.40;50.90;;;;;;5037219;28;20226;-78
2022/12/30 04:08:13;;;;;;;1.20;1.10;;;16.40;50.80;;;;;;5036234;28;20219;-78
2022/12/30 04:10:40;;;;;;;1.00;1.00;;;16.40;51.40;;;;;;5036441;28;20203;-78
2022/12/30 04:13:07;;;;;;;1.83;1.08;;;16.40;50.80;;;;;;5035838;28;20195;-78
2022/12/30 04:15:34;;;;;;;1.30;1.13;;;16.30;50.80;;;;;;5036128;28;20195;-78
2022/12/30 04:18:01;;;;;;;1.83;1.10;;;16.30;50.80;;;;;;5035789;28;20689;-78
2022/12/30 04:20:28;;;;;;;1.27;1.00;;;16.30;51.10;;;;;;5035630;28;20206;-78
2022/12/30 04:22:57;;;;;;;1.10;1.00;;;16.30;51.10;;;;;;5035888;28;20210;-78
2022/12/30 04:25:25;;;;;;;0.70;0.70;;;16.30;51.10;;;;;;5035741;28;20199;-78
2022/12/30 04:27:53;;;;;;;0.90;0.90;;;16.30;51.10;;;;;;5035334;28;20879;-78
2022/12/30 04:30:19;;;;;;;1.45;0.82;;;16.20;51.10;;;;;;5035760;28;20607;-78
2022/12/30 04:32:46;;;;;;;0.80;0.80;;;16.20;51.10;;;;;;5036746;28;20196;-78
2022/12/30 04:35:13;;;;;;;0.70;0.70;;;16.30;51.00;;;;;;5036252;28;20688;-78
2022/12/30 04:37:40;;;;;;;0.55;0.55;;;16.30;51.00;;;;;;5036292;28;20273;-78
2022/12/30 04:40:09;;;;;;;0.80;0.80;;;16.30;50.90;;;;;;5037654;28;20188;-78
2022/12/30 04:42:38;;;;;;;0.80;0.80;;;16.30;50.90;;;;;;5039782;28;20210;-78
2022/12/30 04:45:06;;;;;;;0.60;0.60;;;16.30;50.80;;;;;;5057664;28;20195;-78
2022/12/30 04:47:33;;;;;;;1.40;0.90;;;16.30;50.80;;;;;;5040561;28;20245;-79
2022/12/30 04:50:00;;;;;;;0.70;0.70;;;16.30;50.90;;;;;;5023477;28;20630;-79
2022/12/30 04:52:27;;;;;;;0.80;0.80;;;16.30;50.70;;;;;;5040160;28;20717;-79
2022/12/30 04:54:54;;;;;;;0.77;0.77;;;16.40;50.80;;;;;;5039855;28;20538;-79
2022/12/30 04:57:21;;;;;;;1.05;0.90;;;16.30;50.70;;;;;;5039465;28;20219;-79
2022/12/30 04:59:49;;;;;;;0.77;0.77;;;16.30;50.70;;;;;;5039608;28;20227;-79
2022/12/30 05:02:16;;;;;;;0.90;0.90;;;16.30;50.60;;;;;;5039833;28;20196;-79
2022/12/30 05:04:43;;;;;;;0.80;0.80;;;16.30;50.60;;;;;;5039707;28;20234;-79
2022/12/30 05:07:11;;;;;;;0.80;0.80;;;16.20;50.70;;;;;;5039243;28;20200;-79
2022/12/30 05:09:38;;;;;;;0.70;0.60;;;16.20;50.70;;;;;;5022982;28;20269;-79
2022/12/30 05:12:06;;;;;;;1.45;0.73;;;16.30;50.60;;;;;;5039103;28;20573;-79
2022/12/30 05:14:33;;;;;;;0.98;0.93;;;16.20;50.50;;;;;;5039868;28;20207;-79
2022/12/30 05:17:02;;;;;;;0.75;0.75;;;16.20;50.50;;;;;;5038695;28;20257;-79
2022/12/30 05:19:29;;;;;;;0.95;0.95;;;16.20;50.60;;;;;;5039286;28;20222;-79
2022/12/30 05:21:56;;;;;;;0.68;0.68;;;16.20;50.50;;;;;;5039054;28;20253;-79
2022/12/30 05:27:07;;;;;;;0.70;0.70;;;16.20;50.40;;;;;;5038818;28;20195;-78
2022/12/30 05:29:35;;;;;;;0.65;0.65;;;16.20;50.30;;;;;;5038639;28;20223;-78
2022/12/30 05:32:03;;;;;;;0.90;0.82;;;16.30;50.40;;;;;;5038690;28;20208;-79
2022/12/30 05:34:31;;;;;;;0.75;0.75;;;16.20;50.10;;;;;;5038670;28;20202;-79
2022/12/30 05:36:58;;;;;;;1.13;0.75;;;16.30;50.10;;;;;;5038266;28;20207;-79
2022/12/30 05:39:25;;;;;;;0.70;0.70;;;16.30;50.10;;;;;;5022380;28;20217;-79
2022/12/30 05:41:53;;;;;;;1.15;0.70;;;16.30;50.00;;;;;;5038362;28;20206;-79
2022/12/30 05:44:19;;;;;;;1.33;0.70;;;16.40;49.90;;;;;;5056226;28;20199;-79
2022/12/30 05:46:46;;;;;;;1.50;0.80;;;16.40;49.90;;;;;;5038242;28;20191;-79
2022/12/30 05:49:15;;;;;;;0.80;0.75;;;16.30;49.70;;;;;;5038213;28;20251;-78
2022/12/30 05:51:42;;;;;;;0.77;0.77;;;16.40;49.90;;;;;;5037524;28;20273;-78
2022/12/30 05:54:08;;;;;;;0.90;0.90;;;16.40;49.60;;;;;;5054922;28;20254;-78
2022/12/30 05:56:35;;;;;;;0.60;0.60;;;16.40;49.50;;;;;;5038641;28;20227;-78
2022/12/30 05:59:02;;;;;;;0.70;0.70;;;16.40;49.50;;;;;;5054786;28;20234;-78
2022/12/30 06:01:29;;;;;;;0.63;0.63;;;16.40;49.40;;;;;;5054626;28;20207;-78
2022/12/30 06:03:57;;;;;;;0.65;0.65;;;16.40;49.40;;;;;;5038324;28;20575;-78
2022/12/30 06:06:26;;;;;;;0.80;0.80;;;16.40;49.30;;;;;;5059789;28;20192;-80
2022/12/30 06:08:53;;;;;;;0.80;0.80;;;16.40;49.30;;;;;;5039796;28;20219;-82
2022/12/30 06:11:21;;;;;;;1.25;0.80;;;16.50;49.30;;;;;;5038225;28;20700;-79
2022/12/30 06:13:48;;;;;;;0.70;0.70;;;16.50;49.30;;;;;;5037897;28;20281;-80
2022/12/30 06:16:15;;;;;;;0.90;0.75;;;16.50;49.30;;;;;;5038122;28;20195;-80
2022/12/30 06:18:42;;;;;;;0.80;0.80;;;16.50;48.90;;;;;;5042427;28;20286;-80
2022/12/30 06:21:08;;;;;;;0.90;0.90;;;16.50;48.90;;;;;;5040305;28;20203;-80
2022/12/30 06:23:37;;;;;;;1.23;0.90;;;16.50;49.00;;;;;;5038425;28;20199;-80
2022/12/30 06:26:04;;;;;;;1.10;1.00;;;16.50;49.00;;;;;;5037968;28;20210;-80
2022/12/30 06:28:31;;;;;;;0.90;0.90;;;16.50;49.10;;;;;;5037273;28;20254;-80
2022/12/30 06:30:58;;;;;;;1.20;1.10;;;16.60;49.30;;;;;;5038850;28;20734;-80
2022/12/30 06:33:25;;;;;;;0.90;0.90;;;16.60;49.20;;;;;;5039079;28;20199;-80
2022/12/30 06:35:52;;;;;;;0.80;0.80;;;16.50;49.00;;;;;;5056505;28;20199;-80
2022/12/30 06:38:20;;;;;;;0.95;0.82;;;16.50;49.30;;;;;;5038572;28;20692;-80
2022/12/30 06:40:49;;;;;;;0.85;0.85;;;16.50;49.30;;;;;;5037970;28;20199;-80
2022/12/30 06:43:16;;;;;;;0.63;0.63;;;16.50;49.10;;;;;;5037796;28;20280;-80
2022/12/30 06:45:43;;;;;;;0.70;0.68;;;16.40;49.00;;;;;;5037251;28;20195;-80
2022/12/30 06:48:10;;;;;;;1.05;0.93;;;16.50;49.10;;;;;;5021061;28;20697;-80
2022/12/30 06:50:37;;;;;;;0.88;0.88;;;16.50;49.00;;;;;;5037173;28;20268;-80
2022/12/30 06:53:04;;;;;;;0.80;0.80;;;16.50;49.30;;;;;;5053780;28;20195;-79
2022/12/30 06:55:31;;;;;;;0.90;0.90;;;16.50;49.50;;;;;;5037349;28;20760;-79
2022/12/30 06:58:00;;;;;;;0.70;0.70;;;16.50;49.50;;;;;;5037141;28;20258;-79
2022/12/30 07:00:27;;;;;;;0.95;0.90;;;16.50;49.50;;;;;;5037172;28;20249;-79
2022/12/30 07:02:54;;;;;;;1.50;0.90;;;16.50;49.40;;;;;;5036798;28;20199;-79
2022/12/30 07:05:21;;;;;;;1.00;1.00;;;16.50;49.30;;;;;;5053563;28;20684;-79
2022/12/30 07:07:49;;;;;;;1.13;0.95;;;16.50;49.20;;;;;;5038150;28;20274;-79
2022/12/30 07:10:16;;;;;;;1.70;1.02;;;16.50;49.30;;;;;;5037421;28;20214;-79
2022/12/30 07:12:43;;;;;;;0.95;0.88;;;16.50;49.10;;;;;;5039140;28;20219;-79
2022/12/30 07:15:12;;;;;;;1.05;0.90;;;16.50;49.10;;;;;;5039271;28;20253;-79
2022/12/30 07:17:39;;;;;;;2.88;1.00;;;16.50;49.10;;;;;;5038735;28;20317;-79
2022/12/30 07:20:07;;;;;;;1.25;0.93;;;16.50;49.20;;;;;;5038149;28;20188;-80
2022/12/30 07:22:34;;;;;;;0.88;0.88;;;16.50;49.10;;;;;;5038017;28;20261;-81
2022/12/30 07:25:01;;;;;;;1.15;1.05;;;16.50;49.10;;;;;;5038774;28;20666;-80
2022/12/30 07:27:28;;;;;;;0.90;0.90;;;16.50;48.90;;;;;;5039978;28;20210;-80
2022/12/30 07:29:55;;;;;;;1.00;0.88;;;16.50;48.90;;;;;;5023895;28;20219;-80
2022/12/30 07:32:23;;;;;;;1.02;0.95;;;16.50;48.90;;;;;;5036796;28;20199;-80
2022/12/30 07:34:51;;;;;;;1.00;0.90;;;16.50;48.40;;;;;;5036505;28;20203;-80
2022/12/30 07:37:18;;;;;;;1.08;0.98;;;16.60;48.60;;;;;;5036473;28;20195;-80
2022/12/30 07:39:45;;;;;;;0.90;0.90;;;16.60;48.70;;;;;;5037595;28;20594;-80
2022/12/30 07:42:12;;;;;;;1.20;1.10;;;16.60;48.50;;;;;;5037169;28;20199;-80
2022/12/30 07:44:39;;;;;;;0.90;0.90;;;16.60;48.30;;;;;;5037096;28;20310;-80
2022/12/30 07:47:06;;;;;;;1.15;1.05;;;16.60;48.70;;;;;;5037258;28;20215;-80
2022/12/30 07:49:34;;;;;;;0.98;0.98;;;16.60;48.50;;;;;;5036707;28;20236;-80
2022/12/30 07:52:05;;;;;;;1.17;1.08;;;16.60;48.20;;;;;;5055208;28;20703;-80
2022/12/30 07:54:32;;;;;;;0.90;0.90;;;16.60;48.00;;;;;;5045074;28;20195;-80
2022/12/30 07:57:00;;;;;;;1.10;1.00;;;16.60;48.30;;;;;;5036969;28;20206;-80
2022/12/30 07:59:27;;;;;;;1.25;1.15;;;16.70;48.20;;;;;;5037662;28;20583;-80
2022/12/30 08:01:54;;;;;;;1.98;1.40;;;16.60;48.30;;;;;;5038211;28;20214;-80
2022/12/30 08:04:21;;;;;;;1.15;1.05;;;16.70;48.10;;;;;;5038066;28;20564;-80
2022/12/30 08:06:49;;;;;;;1.27;1.17;;;16.70;48.20;;;;;;5042723;28;20195;-80
2022/12/30 08:09:16;;;;;;;1.10;1.10;;;16.70;47.90;;;;;;5043078;28;20223;-80
2022/12/30 08:11:43;;;;;;;1.08;0.90;;;16.70;48.10;;;;;;5042506;28;20245;-80
2022/12/30 08:14:10;;;;;;;1.58;1.10;;;16.70;47.80;;;;;;5036298;28;20233;-80
2022/12/30 08:16:38;;;;;;;0.98;0.90;;;16.70;48.10;;;;;;5041549;28;20328;-80
2022/12/30 08:19:05;;;;;;;1.27;1.17;;;16.80;47.80;;;;;;5040138;28;20242;-80
2022/12/30 08:21:32;;;;;;;1.65;0.90;;;16.80;47.80;;;;;;5040016;28;20203;-80
2022/12/30 08:24:00;;;;;;;1.48;1.00;;;16.80;47.80;;;;;;5043102;28;20218;-80
2022/12/30 08:26:28;;;;;;;0.80;0.80;;;16.80;48.00;;;;;;5040664;28;20262;-80
2022/12/30 08:28:55;;;;;;;1.00;1.00;;;16.80;47.90;;;;;;5039907;28;20720;-80
2022/12/30 08:31:23;;;;;;;1.35;0.90;;;16.80;47.80;;;;;;5040173;28;20257;-80
2022/12/30 08:33:50;;;;;;;0.90;0.90;;;16.80;47.70;;;;;;5039715;28;20203;-80
2022/12/30 08:36:18;;;;;;;1.05;0.80;;;16.80;47.70;;;;;;5056623;28;20199;-80
2022/12/30 08:38:47;;;;;;;0.88;0.88;;;16.90;47.80;;;;;;5039708;28;20223;-80
2022/12/30 08:41:18;;;;;;;1.00;1.00;;;16.80;47.70;;;;;;5039563;28;20206;-80
2022/12/30 08:43:45;;;;;;;1.35;0.90;;;16.90;47.60;;;;;;5056239;28;20238;-80
2022/12/30 08:46:12;;;;;;;1.70;1.10;;;16.90;47.80;;;;;;5039517;28;20287;-80
2022/12/30 08:48:39;;;;;;;0.93;0.93;;;16.90;47.80;;;;;;5040038;28;20665;-80
2022/12/30 08:51:06;;;;;;;2.40;1.00;;;16.90;47.80;;;;;;5039396;28;20219;-80
2022/12/30 08:53:33;;;;;;;1.15;1.05;;;16.90;47.80;;;;;;5039454;28;20207;-80
2022/12/30 08:56:01;;;;;;;1.10;1.00;;;16.90;47.60;;;;;;5040346;28;20209;-80
2022/12/30 08:58:30;;;;;;;1.13;1.08;;;17.00;47.60;;;;;;5039201;28;20219;-80
2022/12/30 09:00:57;;;;;;;1.42;1.10;;;17.00;47.60;;;;;;5039522;28;20241;-80
2022/12/30 09:03:24;;;;;;;1.02;0.93;;;17.00;47.50;;;;;;5038986;28;20199;-80
2022/12/30 09:05:52;;;;;;;1.30;1.20;;;17.00;47.60;;;;;;5039370;28;20222;-80
2022/12/30 09:08:20;;;;;;;1.23;1.02;;;17.00;47.80;;;;;;5039270;28;20310;-80
2022/12/30 09:10:58;;;;;;;1.08;1.00;;;17.00;47.80;;;;;;5039266;28;20696;-80
2022/12/30 09:13:25;;;;;;;2.47;2.28;;;17.00;47.80;;;;;;5040534;28;20225;-80
2022/12/30 09:15:54;;;;;;;3.75;3.45;;;16.90;47.80;;;;;;5038834;28;20331;-80
2022/12/30 09:18:21;;;;;;;6.45;5.85;;;17.00;47.80;;;;;;5038798;28;20237;-80
2022/12/30 09:20:48;;;;;;;9.70;8.85;;;17.00;47.80;;;;;;5022744;28;20199;-80
2022/12/30 09:23:15;;;;;;;8.05;7.32;;;16.90;47.80;;;;;;5039255;28;20195;-80
2022/12/30 09:25:42;;;;;;;4.68;4.28;;;17.00;47.80;;;;;;5038536;28;20203;-80
2022/12/30 09:28:09;;;;;;;2.67;2.47;;;17.00;47.80;;;;;;5037879;28;20219;-80
2022/12/30 09:30:37;;;;;;;2.10;2.00;;;17.00;47.80;;;;;;5038378;28;20223;-80
2022/12/30 09:33:05;;;;;;;2.97;2.70;;;17.00;47.80;;;;;;5038291;28;20199;-80
2022/12/30 09:35:32;;;;;;;2.20;2.08;;;17.00;48.00;;;;;;5022159;28;20199;-80
2022/12/30 09:37:59;;;;;;;3.05;2.35;;;17.10;47.90;;;;;;5038201;28;20219;-80
2022/12/30 09:40:38;;;;;;;2.20;2.00;;;17.10;47.90;;;;;;5056124;28;20191;-80
2022/12/30 09:43:16;;;;;;;2.13;1.90;;;17.10;47.90;;;;;;5055874;28;20272;-80
2022/12/30 09:45:49;;;;;;;2.13;2.03;;;17.10;47.70;;;;;;5039280;28;20533;-80
2022/12/30 09:48:21;;;;;;;2.47;1.75;;;17.10;47.90;;;;;;5038793;28;20335;-80
2022/12/30 09:50:49;;;;;;;2.97;1.80;;;17.20;47.90;;;;;;5039117;28;20258;-80
2022/12/30 09:53:19;;;;;;;1.90;1.80;;;17.20;48.00;;;;;;5038437;28;20202;-80
2022/12/30 09:55:49;;;;;;;4.53;2.08;;;17.20;47.90;;;;;;5038274;28;20326;-80
2022/12/30 09:58:21;;;;;;;6.55;2.50;;;17.20;48.00;;;;;;5038167;28;20223;-80
2022/12/30 10:00:48;;;;;;;3.58;2.00;;;17.20;47.60;;;;;;5039396;28;20192;-80
2022/12/30 10:03:18;;;;;;;2.22;1.60;;;17.30;47.80;;;;;;5045322;28;20227;-80
2022/12/30 10:05:52;;;;;;;2.53;1.60;;;17.30;47.90;;;;;;5044416;28;20200;-80
2022/12/30 10:08:28;;;;;;;2.38;2.05;;;17.30;47.90;;;;;;5044225;28;20688;-80
2022/12/30 10:10:59;;;;;;;2.55;1.90;;;17.30;47.80;;;;;;5043777;28;20707;-79
2022/12/30 10:13:29;;;;;;;1.80;1.70;;;17.30;47.90;;;;;;5062822;28;20649;-79
2022/12/30 10:15:58;;;;;;;1.80;1.70;;;17.30;48.00;;;;;;5040738;28;20214;-79
2022/12/30 10:18:39;;;;;;;1.90;1.80;;;17.30;47.90;;;;;;5054726;28;20219;-79
2022/12/30 10:21:12;;;;;;;1.75;1.65;;;17.30;48.00;;;;;;5038920;28;20188;-79
2022/12/30 10:23:55;;;;;;;2.45;2.00;;;17.40;48.10;;;;;;5038040;28;20695;-79
2022/12/30 10:26:24;;;;;;;1.95;1.85;;;17.40;48.00;;;;;;5054646;28;20225;-79
2022/12/30 10:28:52;;;;;;;1.70;1.60;;;17.40;48.00;;;;;;5037896;28;20613;-79
2022/12/30 10:31:21;;;;;;;1.70;1.60;;;17.50;47.80;;;;;;5037903;28;20580;-79
2022/12/30 10:33:52;;;;;;;1.90;1.75;;;17.50;47.90;;;;;;5037799;28;20242;-79
2022/12/30 10:36:21;;;;;;;2.78;1.70;;;17.50;48.00;;;;;;5054324;28;20199;-77
2022/12/30 10:38:48;;;;;;;1.80;1.70;;;17.50;47.90;;;;;;5053568;28;20251;-77
2022/12/30 10:41:26;;;;;;;1.88;1.65;;;17.50;48.00;;;;;;5037222;28;20601;-77
2022/12/30 10:43:59;;;;;;;1.70;1.60;;;17.60;48.10;;;;;;5053739;28;20242;-77
2022/12/30 10:46:37;;;;;;;2.00;1.70;;;17.50;48.00;;;;;;5037979;28;20219;-77
2022/12/30 10:49:28;;;;;;;1.60;1.50;;;17.70;48.10;;;;;;5037073;28;20223;-77
2022/12/30 10:51:55;;;;;;;2.10;1.50;;;17.70;47.90;;;;;;5037550;28;20211;-77
2022/12/30 10:54:21;;;;;;;1.65;1.40;;;17.70;47.80;;;;;;5038141;28;20203;-77
2022/12/30 10:56:49;;;;;;;1.40;1.30;;;17.70;47.90;;;;;;5037143;28;20199;-77
2022/12/30 10:59:18;;;;;;;1.60;1.50;;;17.80;47.80;;;;;;5036975;28;20220;-77
2022/12/30 11:01:46;;;;;;;1.67;1.58;;;17.80;47.70;;;;;;5037914;28;20287;-77
2022/12/30 11:04:33;;;;;;;1.60;1.50;;;17.80;47.70;;;;;;5055108;28;20187;-77
2022/12/30 11:07:00;;;;;;;2.05;1.80;;;17.80;47.70;;;;;;5036852;28;20216;-77
2022/12/30 11:09:27;;;;;;;1.50;1.40;;;17.90;47.70;;;;;;5037224;28;20625;-77
2022/12/30 11:14:45;;;;;;;1.60;1.50;;;18.00;47.70;;;;;;5037129;28;20194;-80
2022/12/30 11:17:21;;;;;;;1.30;1.20;;;18.00;47.60;;;;;;5056859;28;20194;-80
2022/12/30 11:19:51;;;;;;;1.40;1.30;;;18.00;47.60;;;;;;5037825;28;20291;-80
2022/12/30 11:22:18;;;;;;;1.50;1.40;;;18.00;47.70;;;;;;5037485;28;20634;-80
2022/12/30 11:24:46;;;;;;;1.50;1.40;;;18.00;47.60;;;;;;5038233;28;20199;-80
2022/12/30 11:27:13;;;;;;;1.80;1.70;;;18.10;47.60;;;;;;5037803;28;20203;-80
2022/12/30 11:29:40;;;;;;;1.77;1.67;;;18.10;47.50;;;;;;5037403;28;20226;-80
2022/12/30 11:32:10;;;;;;;1.70;1.60;;;18.10;47.50;;;;;;5036968;28;20254;-80
2022/12/30 11:34:38;;;;;;;1.80;1.70;;;18.10;47.50;;;;;;5053403;28;20323;-80
2022/12/30 11:37:24;;;;;;;2.22;1.98;;;18.10;47.60;;;;;;5037062;28;20199;-80
2022/12/30 11:39:51;;;;;;;1.70;1.60;;;18.10;47.60;;;;;;5053643;28;20245;-80
2022/12/30 11:42:28;;;;;;;2.13;1.92;;;18.10;47.70;;;;;;5036840;28;20199;-80
2022/12/30 11:45:12;;;;;;;1.50;1.40;;;18.10;47.80;;;;;;5037352;28;20638;-80
2022/12/30 11:47:44;;;;;;;1.40;1.30;;;18.10;47.70;;;;;;5037126;28;20187;-80
2022/12/30 11:50:16;;;;;;;1.77;1.67;;;18.10;47.70;;;;;;5036373;28;20626;-79
2022/12/30 11:52:48;;;;;;;1.50;1.40;;;18.00;47.60;;;;;;5037293;28;20195;-79
2022/12/30 11:55:20;;;;;;;1.88;1.42;;;18.00;47.60;;;;;;5038116;28;20245;-79
2022/12/30 11:57:47;;;;;;;1.55;1.20;;;18.00;47.80;;;;;;5037294;28;20215;-79
2022/12/30 12:00:27;;;;;;;1.30;1.20;;;18.00;47.70;;;;;;5020429;28;20212;-79
2022/12/30 12:02:57;;;;;;;1.48;1.33;;;18.00;47.70;;;;;;5037738;28;20186;-79
2022/12/30 12:05:29;;;;;;;1.85;1.70;;;18.10;47.80;;;;;;5053334;28;20195;-79
2022/12/30 12:07:59;;;;;;;1.70;1.60;;;18.20;47.90;;;;;;5036518;28;20227;-79
2022/12/30 12:10:31;;;;;;;1.80;1.70;;;18.20;47.90;;;;;;5052856;28;20618;-79
2022/12/30 12:13:00;;;;;;;2.30;2.10;;;18.30;47.80;;;;;;5036349;28;20192;-79
2022/12/30 12:15:31;;;;;;;1.88;1.60;;;18.30;47.70;;;;;;5036193;28;20261;-79
2022/12/30 12:17:59;;;;;;;1.50;1.40;;;18.30;47.50;;;;;;5036038;28;20223;-79
2022/12/30 12:20:29;;;;;;;1.70;1.55;;;18.40;47.70;;;;;;5036418;28;20188;-79
2022/12/30 12:23:26;;;;;;;2.05;1.30;;;18.30;47.40;;;;;;5053442;28;20212;-79
2022/12/30 12:26:01;;;;;;;1.42;1.33;;;18.40;47.40;;;;;;5002582;28;20249;-79
2022/12/30 12:28:29;;;;;;;1.40;1.30;;;18.40;47.20;;;;;;5036461;28;20280;-79
2022/12/30 12:31:05;;;;;;;1.45;1.35;;;18.50;47.20;;;;;;5036676;28;20220;-79
2022/12/30 12:33:38;;;;;;;1.48;1.38;;;18.50;47.30;;;;;;5036415;28;20214;-79
2022/12/30 12:36:09;;;;;;;1.27;1.20;;;18.50;47.20;;;;;;5052632;28;20195;-79
2022/12/30 12:38:45;;;;;;;1.38;1.27;;;18.50;47.10;;;;;;5036317;28;20211;-79
2022/12/30 12:41:24;;;;;;;1.05;1.02;;;18.50;47.10;;;;;;5037539;28;20203;-80
2022/12/30 12:44:05;;;;;;;1.35;1.25;;;18.50;47.10;;;;;;5036951;28;20211;-80
2022/12/30 12:46:43;;;;;;;2.00;1.40;;;18.50;47.00;;;;;;5054082;28;20192;-80
2022/12/30 12:49:34;;;;;;;1.70;1.50;;;18.50;47.10;;;;;;5037582;28;20227;-80
2022/12/30 12:52:09;;;;;;;1.60;1.50;;;18.50;47.20;;;;;;5030069;28;20215;-80
2022/12/30 12:55:14;;;;;;;1.55;1.45;;;18.50;47.10;;;;;;5054104;28;20629;-80
2022/12/30 12:57:42;;;;;;;1.60;1.50;;;18.50;47.10;;;;;;5036872;28;20230;-80
2022/12/30 13:00:10;;;;;;;1.63;1.52;;;18.60;47.20;;;;;;5037402;28;20226;-80
2022/12/30 13:03:14;;;;;;;1.45;1.35;;;18.50;47.10;;;;;;5040834;28;20612;-80
2022/12/30 13:05:44;;;;;;;1.40;1.30;;;18.50;47.00;;;;;;5041274;28;20205;-80
2022/12/30 13:08:17;;;;;;;2.22;1.45;;;18.50;47.10;;;;;;5039698;28;20594;-80
2022/12/30 13:10:48;;;;;;;1.50;1.40;;;18.50;47.10;;;;;;5039271;28;20202;-79
2022/12/30 13:13:19;;;;;;;2.83;2.10;;;18.50;47.20;;;;;;5039709;28;20210;-79
2022/12/30 13:15:47;;;;;;;1.70;1.60;;;18.50;47.10;;;;;;5056459;28;20222;-79
2022/12/30 13:18:18;;;;;;;1.70;1.60;;;18.50;47.10;;;;;;5039543;28;20219;-79
2022/12/30 13:20:47;;;;;;;1.60;1.42;;;18.50;47.00;;;;;;5039709;28;20543;-79
2022/12/30 13:23:15;;;;;;;1.65;1.50;;;18.50;47.10;;;;;;5039127;28;20600;-79
2022/12/30 13:25:42;;;;;;;1.52;1.42;;;18.50;47.00;;;;;;5039062;28;20203;-79
2022/12/30 13:28:17;;;;;;;1.52;1.42;;;18.50;47.00;;;;;;5038934;28;20592;-79
2022/12/30 13:30:47;;;;;;;1.40;1.30;;;18.50;47.00;;;;;;5055246;28;20191;-79
2022/12/30 13:33:16;;;;;;;1.90;1.60;;;18.50;47.00;;;;;;5055399;28;20202;-79
2022/12/30 13:35:52;;;;;;;1.60;1.50;;;18.50;47.00;;;;;;5038690;28;20238;-79
2022/12/30 13:38:36;;;;;;;2.03;1.88;;;18.50;47.00;;;;;;5038800;28;20254;-79
2022/12/30 13:41:15;;;;;;;2.17;1.98;;;18.60;47.00;;;;;;5039066;28;20646;-79
2022/12/30 13:43:44;;;;;;;3.15;2.72;;;18.60;47.00;;;;;;5038944;28;20675;-79
2022/12/30 13:46:16;;;;;;;4.07;2.80;;;18.60;47.20;;;;;;5038907;28;20658;-79
2022/12/30 13:48:47;;;;;;;1.77;1.67;;;18.60;47.30;;;;;;5038963;28;20215;-79
2022/12/30 13:51:17;;;;;;;2.13;1.85;;;18.60;47.00;;;;;;5038729;28;20207;-79
2022/12/30 13:53:46;;;;;;;3.13;2.58;;;18.60;47.20;;;;;;5038979;28;20641;-79
2022/12/30 13:56:15;;;;;;;2.17;1.73;;;18.60;47.20;;;;;;5039593;28;20658;-79